sensor_id;sensor_type;location;lat;lon;timestamp;pressure;altitude;pressure_sealevel;temperature;humidity
30463;BME280;17256;43.618;25.336;2022-09-01T00:00:46;100417.53;;;20.87;100.00
30463;BME280;17256;43.618;25.336;2022-09-01T00:03:17;100345.34;;;20.48;100.00
30463;BME280;17256;43.618;25.336;2022-09-01T00:05:50;100502.38;;;21.33;100.00
30463;BME280;17256;43.618;25.336;2022-09-01T00:08:21;100057.22;;;18.70;100.00
30463;BME280;17256;43.618;25.336;2022-09-01T00:10:55;100501.84;;;21.36;100.00
30463;BME280;17256;43.618;25.336;2022-09-01T00:13:22;100223.22;;;19.56;100.00
30463;BME280;17256;43.618;25.336;2022-09-01T00:15:51;100314.53;;;20.28;100.00
30463;BME280;17256;43.618;25.336;2022-09-01T00:18:25;100431.72;;;20.80;100.00
30463;BME280;17256;43.618;25.336;2022-09-01T00:21:00;100314.19;;;20.14;100.00
30463;BME280;17256;43.618;25.336;2022-09-01T00:23:28;100486.06;;;21.10;100.00
30463;BME280;17256;43.618;25.336;2022-09-01T00:25:57;100477.28;;;20.91;100.00
30463;BME280;17256;43.618;25.336;2022-09-01T00:28:44;100477.84;;;20.93;100.00
30463;BME280;17256;43.618;25.336;2022-09-01T00:31:12;100370.53;;;20.21;100.00
30463;BME280;17256;43.618;25.336;2022-09-01T00:33:40;100386.63;;;20.09;100.00
30463;BME280;17256;43.618;25.336;2022-09-01T00:36:10;100478.69;;;20.94;100.00
30463;BME280;17256;43.618;25.336;2022-09-01T00:38:41;100193.97;;;19.21;100.00
30463;BME280;17256;43.618;25.336;2022-09-01T00:41:13;100499.66;;;20.96;100.00
30463;BME280;17256;43.618;25.336;2022-09-01T00:43:51;100471.19;;;21.04;100.00
30463;BME280;17256;43.618;25.336;2022-09-01T00:46:25;100296.22;;;20.00;100.00
30463;BME280;17256;43.618;25.336;2022-09-01T00:48:59;100121.84;;;18.56;100.00
30463;BME280;17256;43.618;25.336;2022-09-01T00:51:30;100418.25;;;20.62;100.00
30463;BME280;17256;43.618;25.336;2022-09-01T00:54:00;100003.63;;;18.16;100.00
30463;BME280;17256;43.618;25.336;2022-09-01T00:56:37;100143.41;;;18.97;100.00
30463;BME280;17256;43.618;25.336;2022-09-01T00:59:09;100023.59;;;18.13;100.00
30463;BME280;17256;43.618;25.336;2022-09-01T01:01:39;100481.22;;;20.95;100.00
30463;BME280;17256;43.618;25.336;2022-09-01T01:04:11;100485.38;;;20.93;100.00
30463;BME280;17256;43.618;25.336;2022-09-01T01:06:47;100362.41;;;20.15;100.00
30463;BME280;17256;43.618;25.336;2022-09-01T01:09:21;100377.22;;;20.20;100.00
30463;BME280;17256;43.618;25.336;2022-09-01T01:11:50;100371.03;;;20.13;100.00
30463;BME280;17256;43.618;25.336;2022-09-01T01:14:21;100400.47;;;20.36;100.00
30463;BME280;17256;43.618;25.336;2022-09-01T01:16:49;100169.13;;;18.83;100.00
30463;BME280;17256;43.618;25.336;2022-09-01T01:19:41;100264.00;;;19.72;100.00
30463;BME280;17256;43.618;25.336;2022-09-01T01:22:48;100493.81;;;21.03;100.00
30463;BME280;17256;43.618;25.336;2022-09-01T01:25:48;100503.59;;;21.05;100.00
30463;BME280;17256;43.618;25.336;2022-09-01T01:31:06;100049.44;;;18.40;100.00
30463;BME280;17256;43.618;25.336;2022-09-01T01:33:52;100475.44;;;21.12;100.00
30463;BME280;17256;43.618;25.336;2022-09-01T01:36:30;100171.47;;;19.28;100.00
30463;BME280;17256;43.618;25.336;2022-09-01T01:39:19;100401.22;;;20.64;100.00
30463;BME280;17256;43.618;25.336;2022-09-01T01:41:47;100345.00;;;20.40;100.00
30463;BME280;17256;43.618;25.336;2022-09-01T01:44:23;100110.47;;;18.84;100.00
30463;BME280;17256;43.618;25.336;2022-09-01T01:46:55;100136.19;;;19.01;100.00
30463;BME280;17256;43.618;25.336;2022-09-01T01:49:26;100036.75;;;18.55;100.00
30463;BME280;17256;43.618;25.336;2022-09-01T01:51:59;100408.59;;;20.85;100.00
30463;BME280;17256;43.618;25.336;2022-09-01T01:54:36;100412.78;;;20.82;100.00
30463;BME280;17256;43.618;25.336;2022-09-01T01:57:18;100476.06;;;21.24;100.00
30463;BME280;17256;43.618;25.336;2022-09-01T01:59:49;100261.59;;;19.86;100.00
30463;BME280;17256;43.618;25.336;2022-09-01T02:02:21;100091.63;;;18.96;100.00
30463;BME280;17256;43.618;25.336;2022-09-01T02:04:52;100201.75;;;19.56;100.00
30463;BME280;17256;43.618;25.336;2022-09-01T02:07:29;100285.38;;;20.04;100.00
30463;BME280;17256;43.618;25.336;2022-09-01T02:10:02;100260.44;;;19.82;100.00
30463;BME280;17256;43.618;25.336;2022-09-01T02:12:46;100483.84;;;21.17;100.00
30463;BME280;17256;43.618;25.336;2022-09-01T02:15:13;100398.66;;;20.57;100.00
30463;BME280;17256;43.618;25.336;2022-09-01T02:17:42;100046.84;;;18.61;100.00
30463;BME280;17256;43.618;25.336;2022-09-01T02:20:13;100471.25;;;21.09;100.00
30463;BME280;17256;43.618;25.336;2022-09-01T02:22:42;100270.97;;;19.75;100.00
30463;BME280;17256;43.618;25.336;2022-09-01T02:25:13;100310.25;;;20.10;100.00
30463;BME280;17256;43.618;25.336;2022-09-01T02:27:43;100369.53;;;20.38;100.00
30463;BME280;17256;43.618;25.336;2022-09-01T02:30:16;100166.44;;;19.25;100.00
30463;BME280;17256;43.618;25.336;2022-09-01T02:32:52;100396.22;;;20.66;100.00
30463;BME280;17256;43.618;25.336;2022-09-01T02:35:20;100226.25;;;19.54;100.00
30463;BME280;17256;43.618;25.336;2022-09-01T02:37:50;100071.13;;;18.70;100.00
30463;BME280;17256;43.618;25.336;2022-09-01T02:40:27;100449.97;;;21.03;100.00
30463;BME280;17256;43.618;25.336;2022-09-01T02:43:03;100213.44;;;19.53;100.00
30463;BME280;17256;43.618;25.336;2022-09-01T02:45:37;100462.56;;;21.06;100.00
30463;BME280;17256;43.618;25.336;2022-09-01T02:48:18;100489.31;;;20.97;100.00
30463;BME280;17256;43.618;25.336;2022-09-01T02:50:50;100243.47;;;19.51;100.00
30463;BME280;17256;43.618;25.336;2022-09-01T02:53:17;100307.91;;;19.92;100.00
30463;BME280;17256;43.618;25.336;2022-09-01T02:55:46;100357.16;;;20.23;100.00
30463;BME280;17256;43.618;25.336;2022-09-01T02:58:17;100281.22;;;19.64;100.00
30463;BME280;17256;43.618;25.336;2022-09-01T03:00:51;100127.16;;;18.84;100.00
30463;BME280;17256;43.618;25.336;2022-09-01T03:03:20;100382.38;;;20.39;100.00
30463;BME280;17256;43.618;25.336;2022-09-01T03:05:56;100384.03;;;20.40;100.00
30463;BME280;17256;43.618;25.336;2022-09-01T03:08:24;100110.03;;;18.65;100.00
30463;BME280;17256;43.618;25.336;2022-09-01T03:10:54;100195.63;;;19.17;100.00
30463;BME280;17256;43.618;25.336;2022-09-01T03:13:28;100107.50;;;18.64;100.00
30463;BME280;17256;43.618;25.336;2022-09-01T03:15:57;100281.06;;;19.81;100.00
30463;BME280;17256;43.618;25.336;2022-09-01T03:18:27;100429.44;;;20.72;100.00
30463;BME280;17256;43.618;25.336;2022-09-01T03:20:55;100316.94;;;20.09;100.00
30463;BME280;17256;43.618;25.336;2022-09-01T03:23:22;100470.38;;;21.04;100.00
30463;BME280;17256;43.618;25.336;2022-09-01T03:25:50;100347.97;;;20.28;100.00
30463;BME280;17256;43.618;25.336;2022-09-01T03:28:21;100328.66;;;20.11;100.00
30463;BME280;17256;43.618;25.336;2022-09-01T03:30:49;100337.94;;;20.27;100.00
30463;BME280;17256;43.618;25.336;2022-09-01T03:33:20;100461.69;;;21.00;100.00
30463;BME280;17256;43.618;25.336;2022-09-01T03:35:51;100211.47;;;19.17;100.00
30463;BME280;17256;43.618;25.336;2022-09-01T03:38:18;100220.56;;;19.39;100.00
30463;BME280;17256;43.618;25.336;2022-09-01T03:40:54;100409.78;;;20.47;100.00
30463;BME280;17256;43.618;25.336;2022-09-01T03:43:25;100320.66;;;19.83;100.00
30463;BME280;17256;43.618;25.336;2022-09-01T03:45:55;100156.13;;;18.61;100.00
30463;BME280;17256;43.618;25.336;2022-09-01T03:48:23;100165.69;;;18.70;100.00
30463;BME280;17256;43.618;25.336;2022-09-01T03:50:55;100170.41;;;18.70;100.00
30463;BME280;17256;43.618;25.336;2022-09-01T03:53:24;100333.44;;;19.52;100.00
30463;BME280;17256;43.618;25.336;2022-09-01T03:55:56;100517.22;;;20.54;100.00
30463;BME280;17256;43.618;25.336;2022-09-01T03:58:24;100106.88;;;18.08;100.00
30463;BME280;17256;43.618;25.336;2022-09-01T04:00:54;100309.81;;;19.27;100.00
30463;BME280;17256;43.618;25.336;2022-09-01T04:03:24;100159.78;;;18.40;100.00
30463;BME280;17256;43.618;25.336;2022-09-01T04:06:01;100277.91;;;19.08;100.00
30463;BME280;17256;43.618;25.336;2022-09-01T04:08:32;100388.00;;;19.75;100.00
30463;BME280;17256;43.618;25.336;2022-09-01T04:11:04;100248.28;;;18.97;100.00
30463;BME280;17256;43.618;25.336;2022-09-01T04:13:38;100406.28;;;19.92;100.00
30463;BME280;17256;43.618;25.336;2022-09-01T04:16:06;100309.03;;;19.32;100.00
30463;BME280;17256;43.618;25.336;2022-09-01T04:18:56;100284.94;;;19.16;100.00
30463;BME280;17256;43.618;25.336;2022-09-01T04:21:33;100317.19;;;19.39;100.00
30463;BME280;17256;43.618;25.336;2022-09-01T04:24:01;100403.16;;;19.84;100.00
30463;BME280;17256;43.618;25.336;2022-09-01T04:26:36;100505.78;;;20.56;100.00
30463;BME280;17256;43.618;25.336;2022-09-01T04:29:09;100265.44;;;19.11;100.00
30463;BME280;17256;43.618;25.336;2022-09-01T04:31:41;100378.28;;;19.50;100.00
30463;BME280;17256;43.618;25.336;2022-09-01T04:34:07;100391.47;;;19.87;100.00
30463;BME280;17256;43.618;25.336;2022-09-01T04:36:42;100271.66;;;19.23;100.00
30463;BME280;17256;43.618;25.336;2022-09-01T04:39:10;100141.78;;;18.48;100.00
30463;BME280;17256;43.618;25.336;2022-09-01T04:41:42;100524.78;;;21.01;100.00
30463;BME280;17256;43.618;25.336;2022-09-01T04:44:15;100455.41;;;20.73;100.00
30463;BME280;17256;43.618;25.336;2022-09-01T04:46:45;100448.44;;;20.75;100.00
30463;BME280;17256;43.618;25.336;2022-09-01T04:49:14;100212.75;;;19.36;100.00
30463;BME280;17256;43.618;25.336;2022-09-01T04:51:49;100376.78;;;20.39;100.00
30463;BME280;17256;43.618;25.336;2022-09-01T04:54:17;100532.88;;;21.50;100.00
30463;BME280;17256;43.618;25.336;2022-09-01T04:56:47;100274.78;;;20.06;100.00
30463;BME280;17256;43.618;25.336;2022-09-01T04:59:20;100285.47;;;20.14;100.00
30463;BME280;17256;43.618;25.336;2022-09-01T05:01:50;100435.19;;;21.03;100.00
30463;BME280;17256;43.618;25.336;2022-09-01T05:04:21;100381.91;;;20.52;100.00
30463;BME280;17256;43.618;25.336;2022-09-01T05:06:57;100385.06;;;20.66;100.00
30463;BME280;17256;43.618;25.336;2022-09-01T05:09:36;100428.47;;;21.04;100.00
30463;BME280;17256;43.618;25.336;2022-09-01T05:12:24;100364.44;;;20.77;100.00
30463;BME280;17256;43.618;25.336;2022-09-01T05:15:00;100306.56;;;20.47;100.00
30463;BME280;17256;43.618;25.336;2022-09-01T05:17:31;100307.75;;;20.61;100.00
30463;BME280;17256;43.618;25.336;2022-09-01T05:19:59;100453.53;;;21.56;100.00
30463;BME280;17256;43.618;25.336;2022-09-01T05:22:26;100527.22;;;22.07;100.00
30463;BME280;17256;43.618;25.336;2022-09-01T05:24:59;100219.50;;;20.40;100.00
30463;BME280;17256;43.618;25.336;2022-09-01T05:27:43;100292.19;;;20.80;100.00
30463;BME280;17256;43.618;25.336;2022-09-01T05:30:15;100513.25;;;22.38;100.00
30463;BME280;17256;43.618;25.336;2022-09-01T05:32:43;100189.41;;;20.42;100.00
30463;BME280;17256;43.618;25.336;2022-09-01T05:35:15;100153.03;;;20.11;100.00
30463;BME280;17256;43.618;25.336;2022-09-01T05:37:41;100351.47;;;21.08;100.00
30463;BME280;17256;43.618;25.336;2022-09-01T05:40:16;100070.41;;;19.27;100.00
30463;BME280;17256;43.618;25.336;2022-09-01T05:42:45;100215.53;;;20.25;100.00
30463;BME280;17256;43.618;25.336;2022-09-01T05:45:13;100340.78;;;20.89;100.00
30463;BME280;17256;43.618;25.336;2022-09-01T05:47:45;100215.50;;;20.15;100.00
30463;BME280;17256;43.618;25.336;2022-09-01T05:50:20;100422.78;;;21.41;100.00
30463;BME280;17256;43.618;25.336;2022-09-01T05:52:57;100323.19;;;20.84;100.00
30463;BME280;17256;43.618;25.336;2022-09-01T05:55:29;100512.97;;;22.14;100.00
30463;BME280;17256;43.618;25.336;2022-09-01T05:58:05;100479.06;;;22.00;100.00
30463;BME280;17256;43.618;25.336;2022-09-01T06:00:47;100170.63;;;20.22;100.00
30463;BME280;17256;43.618;25.336;2022-09-01T06:03:14;100449.19;;;22.21;100.00
30463;BME280;17256;43.618;25.336;2022-09-01T06:05:46;100414.47;;;22.48;100.00
30463;BME280;17256;43.618;25.336;2022-09-01T06:08:24;100144.56;;;21.09;100.00
30463;BME280;17256;43.618;25.336;2022-09-01T06:11:09;100532.50;;;23.85;100.00
30463;BME280;17256;43.618;25.336;2022-09-01T06:13:52;100532.94;;;24.08;100.00
30463;BME280;17256;43.618;25.336;2022-09-01T06:16:59;100213.00;;;22.48;100.00
30463;BME280;17256;43.618;25.336;2022-09-01T07:04:49;100240.22;;;23.65;100.00
30463;BME280;17256;43.618;25.336;2022-09-01T08:05:01;100531.81;;;27.18;100.00
30463;BME280;17256;43.618;25.336;2022-09-01T08:35:56;100406.63;;;27.19;91.95
30463;BME280;17256;43.618;25.336;2022-09-01T08:38:23;100471.66;;;27.64;89.16
30463;BME280;17256;43.618;25.336;2022-09-01T08:40:54;100516.97;;;27.81;92.50
30463;BME280;17256;43.618;25.336;2022-09-01T08:52:54;100454.50;;;27.60;85.67
30463;BME280;17256;43.618;25.336;2022-09-01T09:09:15;100488.28;;;28.24;85.44
30463;BME280;17256;43.618;25.336;2022-09-01T09:12:26;100466.19;;;28.39;81.39
30463;BME280;17256;43.618;25.336;2022-09-01T09:17:46;100326.91;;;27.05;83.40
30463;BME280;17256;43.618;25.336;2022-09-01T09:20:15;100363.38;;;27.23;85.45
30463;BME280;17256;43.618;25.336;2022-09-01T09:27:06;100318.69;;;27.31;79.57
30463;BME280;17256;43.618;25.336;2022-09-01T09:29:50;100399.00;;;28.05;86.28
30463;BME280;17256;43.618;25.336;2022-09-01T09:32:17;100465.34;;;28.39;84.12
30463;BME280;17256;43.618;25.336;2022-09-01T09:34:44;100365.69;;;27.71;83.88
30463;BME280;17256;43.618;25.336;2022-09-01T09:37:28;100470.94;;;28.53;80.63
30463;BME280;17256;43.618;25.336;2022-09-01T09:40:16;100289.06;;;27.78;75.78
30463;BME280;17256;43.618;25.336;2022-09-01T09:45:24;100435.09;;;28.93;75.64
30463;BME280;17256;43.618;25.336;2022-09-01T09:47:54;100455.03;;;28.88;78.82
30463;BME280;17256;43.618;25.336;2022-09-01T09:50:29;100335.78;;;28.15;73.02
30463;BME280;17256;43.618;25.336;2022-09-01T09:53:27;100447.72;;;28.87;77.17
30463;BME280;17256;43.618;25.336;2022-09-01T10:00:01;100401.50;;;28.60;77.83
30463;BME280;17256;43.618;25.336;2022-09-01T10:02:43;100406.59;;;28.80;80.52
30463;BME280;17256;43.618;25.336;2022-09-01T10:05:48;100428.78;;;28.96;73.63
30463;BME280;17256;43.618;25.336;2022-09-01T10:08:43;100430.84;;;29.04;75.11
30463;BME280;17256;43.618;25.336;2022-09-01T10:11:44;100429.13;;;28.94;75.04
30463;BME280;17256;43.618;25.336;2022-09-01T10:14:15;100432.19;;;29.24;74.68
30463;BME280;17256;43.618;25.336;2022-09-01T10:16:42;100424.00;;;29.05;74.93
30463;BME280;17256;43.618;25.336;2022-09-01T10:19:13;100382.41;;;28.97;72.78
30463;BME280;17256;43.618;25.336;2022-09-01T10:21:41;100414.78;;;29.30;73.77
30463;BME280;17256;43.618;25.336;2022-09-01T10:26:52;100335.53;;;29.04;70.60
30463;BME280;17256;43.618;25.336;2022-09-01T10:29:30;100410.69;;;29.54;69.01
30463;BME280;17256;43.618;25.336;2022-09-01T10:31:58;100403.63;;;29.25;72.34
30463;BME280;17256;43.618;25.336;2022-09-01T10:34:26;100402.38;;;29.66;74.30
30463;BME280;17256;43.618;25.336;2022-09-01T10:36:58;100402.53;;;29.87;71.38
30463;BME280;17256;43.618;25.336;2022-09-01T10:39:24;100375.88;;;29.70;68.70
30463;BME280;17256;43.618;25.336;2022-09-01T10:41:59;100393.56;;;29.85;67.27
30463;BME280;17256;43.618;25.336;2022-09-01T10:44:34;100393.72;;;29.54;66.29
30463;BME280;17256;43.618;25.336;2022-09-01T10:47:23;100392.22;;;29.91;69.38
30463;BME280;17256;43.618;25.336;2022-09-01T10:55:19;100308.00;;;29.62;73.07
30463;BME280;17256;43.618;25.336;2022-09-01T11:10:56;100374.47;;;30.46;66.44
30463;BME280;17256;43.618;25.336;2022-09-01T11:13:35;100366.06;;;30.02;69.00
30463;BME280;17256;43.618;25.336;2022-09-01T11:27:05;100320.47;;;29.78;68.49
30463;BME280;17256;43.618;25.336;2022-09-01T11:32:34;100331.25;;;30.02;67.62
30463;BME280;17256;43.618;25.336;2022-09-01T11:35:03;100349.69;;;30.34;67.61
30463;BME280;17256;43.618;25.336;2022-09-01T11:37:30;100304.56;;;30.20;66.06
30463;BME280;17256;43.618;25.336;2022-09-01T11:40:00;100333.97;;;30.45;65.30
30463;BME280;17256;43.618;25.336;2022-09-01T11:42:39;100283.75;;;30.25;62.95
30463;BME280;17256;43.618;25.336;2022-09-01T11:47:42;100278.78;;;29.96;61.40
30463;BME280;17256;43.618;25.336;2022-09-01T11:50:25;100351.31;;;30.52;63.05
30463;BME280;17256;43.618;25.336;2022-09-01T11:55:35;100313.78;;;30.09;63.66
30463;BME280;17256;43.618;25.336;2022-09-01T11:58:02;100328.50;;;30.40;62.34
30463;BME280;17256;43.618;25.336;2022-09-01T12:00:33;100296.16;;;30.41;61.93
30463;BME280;17256;43.618;25.336;2022-09-01T12:03:05;100331.03;;;30.80;61.53
30463;BME280;17256;43.618;25.336;2022-09-01T12:05:43;100325.72;;;30.78;62.62
30463;BME280;17256;43.618;25.336;2022-09-01T12:08:12;100301.53;;;30.34;63.11
30463;BME280;17256;43.618;25.336;2022-09-01T12:10:40;100275.84;;;30.39;64.04
30463;BME280;17256;43.618;25.336;2022-09-01T12:13:10;100298.44;;;30.48;63.26
30463;BME280;17256;43.618;25.336;2022-09-01T12:15:39;100311.25;;;30.92;60.97
30463;BME280;17256;43.618;25.336;2022-09-01T12:20:38;100312.44;;;31.20;60.04
30463;BME280;17256;43.618;25.336;2022-09-01T12:25:52;100286.50;;;31.31;59.52
30463;BME280;17256;43.618;25.336;2022-09-01T12:28:21;100312.75;;;31.28;59.54
30463;BME280;17256;43.618;25.336;2022-09-01T12:30:48;100300.13;;;31.16;59.96
30463;BME280;17256;43.618;25.336;2022-09-01T12:33:17;100098.72;;;30.12;58.87
30463;BME280;17256;43.618;25.336;2022-09-01T12:35:44;100284.63;;;30.84;57.98
30463;BME280;17256;43.618;25.336;2022-09-01T12:40:45;100210.72;;;30.60;60.39
30463;BME280;17256;43.618;25.336;2022-09-01T12:43:34;100248.50;;;30.73;60.17
30463;BME280;17256;43.618;25.336;2022-09-01T12:46:00;100217.53;;;30.68;58.78
30463;BME280;17256;43.618;25.336;2022-09-01T12:48:34;100218.25;;;30.85;59.68
30463;BME280;17256;43.618;25.336;2022-09-01T12:51:18;100273.38;;;31.26;57.96
30463;BME280;17256;43.618;25.336;2022-09-01T12:53:56;100179.44;;;30.98;57.92
30463;BME280;17256;43.618;25.336;2022-09-01T12:59:13;100247.06;;;31.38;57.51
30463;BME280;17256;43.618;25.336;2022-09-01T13:01:40;100271.75;;;31.58;56.99
30463;BME280;17256;43.618;25.336;2022-09-01T13:04:28;100237.22;;;31.35;57.11
30463;BME280;17256;43.618;25.336;2022-09-01T13:07:01;100268.22;;;31.19;56.63
30463;BME280;17256;43.618;25.336;2022-09-01T13:09:27;100269.09;;;31.11;57.89
30463;BME280;17256;43.618;25.336;2022-09-01T13:11:53;100234.00;;;30.95;58.44
30463;BME280;17256;43.618;25.336;2022-09-01T13:14:33;100241.22;;;30.92;58.71
30463;BME280;17256;43.618;25.336;2022-09-01T13:16:58;100259.16;;;31.05;57.15
30463;BME280;17256;43.618;25.336;2022-09-01T13:19:24;100249.06;;;31.16;57.59
30463;BME280;17256;43.618;25.336;2022-09-01T13:21:49;100165.16;;;30.44;56.75
30463;BME280;17256;43.618;25.336;2022-09-01T13:24:15;100209.66;;;30.73;56.78
30463;BME280;17256;43.618;25.336;2022-09-01T13:26:42;100221.81;;;31.03;56.19
30463;BME280;17256;43.618;25.336;2022-09-01T13:29:14;100211.63;;;30.81;57.39
30463;BME280;17256;43.618;25.336;2022-09-01T13:31:41;100212.50;;;30.94;58.01
30463;BME280;17256;43.618;25.336;2022-09-01T13:34:09;100241.38;;;31.17;56.72
30463;BME280;17256;43.618;25.336;2022-09-01T13:36:34;100240.34;;;31.21;55.29
30463;BME280;17256;43.618;25.336;2022-09-01T13:39:00;100240.69;;;31.20;55.89
30463;BME280;17256;43.618;25.336;2022-09-01T13:41:25;100236.81;;;31.04;56.87
30463;BME280;17256;43.618;25.336;2022-09-01T13:43:51;100240.81;;;31.03;56.72
30463;BME280;17256;43.618;25.336;2022-09-01T13:46:16;100216.00;;;31.00;56.46
30463;BME280;17256;43.618;25.336;2022-09-01T13:48:43;100242.28;;;31.30;55.60
30463;BME280;17256;43.618;25.336;2022-09-01T13:51:08;100261.97;;;31.47;55.41
30463;BME280;17256;43.618;25.336;2022-09-01T13:53:42;100175.66;;;30.94;55.19
30463;BME280;17256;43.618;25.336;2022-09-01T13:56:07;100166.19;;;30.90;55.70
30463;BME280;17256;43.618;25.336;2022-09-01T13:58:33;100200.78;;;31.04;54.75
30463;BME280;17256;43.618;25.336;2022-09-01T14:00:58;100243.00;;;31.27;55.69
30463;BME280;17256;43.618;25.336;2022-09-01T14:03:24;100220.31;;;30.97;54.63
30463;BME280;17256;43.618;25.336;2022-09-01T14:05:50;100229.34;;;30.99;55.82
30463;BME280;17256;43.618;25.336;2022-09-01T14:08:18;100204.09;;;31.06;55.47
30463;BME280;17256;43.618;25.336;2022-09-01T14:10:47;100237.06;;;30.90;53.97
30463;BME280;17256;43.618;25.336;2022-09-01T14:13:15;100253.72;;;30.91;55.60
30463;BME280;17256;43.618;25.336;2022-09-01T14:15:41;100248.16;;;31.04;55.51
30463;BME280;17256;43.618;25.336;2022-09-01T14:18:07;100238.91;;;31.36;55.80
30463;BME280;17256;43.618;25.336;2022-09-01T14:20:37;100240.41;;;31.34;54.90
30463;BME280;17256;43.618;25.336;2022-09-01T14:23:07;100248.28;;;31.07;53.97
30463;BME280;17256;43.618;25.336;2022-09-01T14:25:35;100180.06;;;30.62;56.71
30463;BME280;17256;43.618;25.336;2022-09-01T14:28:03;100220.53;;;31.13;55.74
30463;BME280;17256;43.618;25.336;2022-09-01T14:30:30;100215.06;;;30.87;54.82
30463;BME280;17256;43.618;25.336;2022-09-01T14:32:56;100245.28;;;30.83;54.91
30463;BME280;17256;43.618;25.336;2022-09-01T14:35:23;100223.31;;;30.80;54.70
30463;BME280;17256;43.618;25.336;2022-09-01T14:37:54;100238.09;;;30.85;54.77
30463;BME280;17256;43.618;25.336;2022-09-01T14:40:21;100251.31;;;30.81;55.52
30463;BME280;17256;43.618;25.336;2022-09-01T14:42:49;100250.84;;;31.00;55.51
30463;BME280;17256;43.618;25.336;2022-09-01T14:45:23;100239.13;;;30.81;54.93
30463;BME280;17256;43.618;25.336;2022-09-01T14:47:52;100203.81;;;30.49;54.95
30463;BME280;17256;43.618;25.336;2022-09-01T14:50:19;100223.44;;;30.54;54.51
30463;BME280;17256;43.618;25.336;2022-09-01T14:52:45;100175.31;;;30.16;56.08
30463;BME280;17256;43.618;25.336;2022-09-01T14:55:12;100209.72;;;30.35;56.14
30463;BME280;17256;43.618;25.336;2022-09-01T14:57:38;100144.16;;;29.78;55.09
30463;BME280;17256;43.618;25.336;2022-09-01T15:00:07;100234.28;;;30.14;56.15
30463;BME280;17256;43.618;25.336;2022-09-01T15:02:42;100227.84;;;30.05;57.10
30463;BME280;17256;43.618;25.336;2022-09-01T15:05:11;100217.50;;;30.00;56.91
30463;BME280;17256;43.618;25.336;2022-09-01T15:08:06;100223.00;;;30.05;56.89
30463;BME280;17256;43.618;25.336;2022-09-01T15:10:32;100228.84;;;29.91;57.97
30463;BME280;17256;43.618;25.336;2022-09-01T15:12:59;100196.09;;;29.82;58.39
30463;BME280;17256;43.618;25.336;2022-09-01T15:15:27;100202.75;;;29.77;57.70
30463;BME280;17256;43.618;25.336;2022-09-01T15:17:54;100215.91;;;29.82;58.12
30463;BME280;17256;43.618;25.336;2022-09-01T15:20:20;100191.94;;;29.79;58.51
30463;BME280;17256;43.618;25.336;2022-09-01T15:23:27;100231.84;;;30.04;58.39
30463;BME280;17256;43.618;25.336;2022-09-01T15:25:54;100206.88;;;29.88;58.09
30463;BME280;17256;43.618;25.336;2022-09-01T15:28:20;100211.06;;;29.74;57.24
30463;BME280;17256;43.618;25.336;2022-09-01T15:30:56;100226.19;;;29.86;58.39
30463;BME280;17256;43.618;25.336;2022-09-01T15:33:21;100235.03;;;29.85;58.74
30463;BME280;17256;43.618;25.336;2022-09-01T15:35:47;100219.75;;;29.68;58.11
30463;BME280;17256;43.618;25.336;2022-09-01T15:38:14;100243.00;;;29.91;59.72
30463;BME280;17256;43.618;25.336;2022-09-01T15:40:41;100237.72;;;29.81;58.75
30463;BME280;17256;43.618;25.336;2022-09-01T15:43:07;100208.47;;;29.60;59.43
30463;BME280;17256;43.618;25.336;2022-09-01T15:45:33;100243.81;;;30.00;59.29
30463;BME280;17256;43.618;25.336;2022-09-01T15:48:00;100211.75;;;29.79;59.01
30463;BME280;17256;43.618;25.336;2022-09-01T15:50:26;100225.53;;;29.89;59.01
30463;BME280;17256;43.618;25.336;2022-09-01T15:53:02;100261.59;;;30.18;59.23
30463;BME280;17256;43.618;25.336;2022-09-01T15:55:30;100239.97;;;29.96;60.18
30463;BME280;17256;43.618;25.336;2022-09-01T16:13:47;100105.44;;;25.17;99.59
30463;BME280;17256;43.618;25.336;2022-09-01T16:25:13;100148.72;;;23.98;100.00
30463;BME280;17256;43.618;25.336;2022-09-01T16:27:49;100158.81;;;23.99;100.00
30463;BME280;17256;43.618;25.336;2022-09-01T16:30:28;100133.94;;;23.68;100.00
30463;BME280;17256;43.618;25.336;2022-09-01T16:33:04;99975.53;;;22.70;100.00
30463;BME280;17256;43.618;25.336;2022-09-01T16:38:50;99966.03;;;22.66;100.00
30463;BME280;17256;43.618;25.336;2022-09-01T16:47:59;100313.31;;;24.79;100.00
30463;BME280;17256;43.618;25.336;2022-09-01T16:56:27;99987.78;;;22.74;100.00
30463;BME280;17256;43.618;25.336;2022-09-01T16:59:32;100324.97;;;24.67;100.00
30463;BME280;17256;43.618;25.336;2022-09-01T17:04:54;100201.00;;;23.88;100.00
30463;BME280;17256;43.618;25.336;2022-09-01T17:07:51;100319.81;;;24.56;100.00
30463;BME280;17256;43.618;25.336;2022-09-01T17:13:43;99968.22;;;22.01;100.00
30463;BME280;17256;43.618;25.336;2022-09-01T17:16:33;100085.91;;;22.54;100.00
30463;BME280;17256;43.618;25.336;2022-09-01T17:19:13;99974.56;;;21.72;100.00
30463;BME280;17256;43.618;25.336;2022-09-01T17:22:06;100238.03;;;23.22;100.00
30463;BME280;17256;43.618;25.336;2022-09-01T17:24:51;100319.78;;;23.69;100.00
30463;BME280;17256;43.618;25.336;2022-09-01T17:27:28;99939.34;;;21.12;100.00
30463;BME280;17256;43.618;25.336;2022-09-01T17:30:07;100193.25;;;22.83;100.00
30463;BME280;17256;43.618;25.336;2022-09-01T17:36:18;100081.47;;;21.98;100.00